METAR AND TAF INFORMATION
METAR FOR EHVK
ADDS - METARS form results

(2109 UTC 21 February 2020)
Data provider http://aviationweather.gov/metar/data/
 
METAR text: EHVK 212055Z AUTO 22019KT 190V250 9999 BKN029 OVC032 08/03 Q1023 BLU
Conditions at: EHVK (VOLKEL RNLAFB , NL) observed 2055 UTC 21 February 2020
Temperature: 8.0°C (46°F)
Dewpoint: 3.0°C (37°F) [RH = 71%]
Pressure (altimeter): 30.21 inches Hg (1023.0 mb)
Winds: from the SW (220 degrees) at 22 MPH (19 knots; 9.8 m/s)
Visibility: 6 or more miles (10+ km)
Ceiling: 2900 feet AGL
Clouds: broken clouds at 2900 feet AGL
overcast cloud deck at 3200 feet AGL
Weather: no significant weather observed at this time

METAR text: EHVK 212025Z AUTO 22020KT 190V270 9999 BKN032 OVC036 08/03 Q1023 BLU
Conditions at: EHVK (VOLKEL RNLAFB , NL) observed 2025 UTC 21 February 2020
Temperature: 8.0°C (46°F)
Dewpoint: 3.0°C (37°F) [RH = 71%]
Pressure (altimeter): 30.21 inches Hg (1023.0 mb)
Winds: from the SW (220 degrees) at 23 MPH (20 knots; 10.3 m/s)
Visibility: 6 or more miles (10+ km)
Ceiling: 3200 feet AGL
Clouds: broken clouds at 3200 feet AGL
overcast cloud deck at 3600 feet AGL
Weather: no significant weather observed at this time

Forecast for: EHVK (VOLKEL RNLAFB , NL)
Text: TAF EHVK 211703Z 2118/2206 22015G25KT 9999 SCT030 BKN040
Forecast period: 1800 UTC 21 February 2020 to 0100 UTC 22 February 2020
Forecast type: FROM: standard forecast or significant change
Winds: from the SW (220 degrees) at 17 MPH (15 knots; 7.7 m/s)
gusting to 29 MPH (25 knots; 12.9 m/s)
Visibility: 6 or more miles 10+ km)
Ceiling: 4000 feet AGL
Clouds: scattered clouds at 3000 feet AGL
broken clouds at 4000 feet AGL
Weather: no significant weather forecast for this period
Text: BECMG 2201/2204 SCT018 BKN020
Forecast period: 0100 to 0600 UTC 22 February 2020
Forecast type: BECOMING: Conditions expected to become as follows by 0400 UTC 22 February 2020
Winds: from the SW (220 degrees) at 17 MPH (15 knots; 7.7 m/s)
gusting to 29 MPH (25 knots; 12.9 m/s)
Visibility: 6 or more miles 10+ km)
Ceiling: 2000 feet AGL
Clouds: scattered clouds at 1800 feet AGL
broken clouds at 2000 feet AGL
Weather: no significant weather forecast for this period

 AIRPORT MAP

 RUNWAY INFORMATION
Runway 06L Runway length 9922 ft Runway width 148 ft
Runway elevation 71 ft Runway displaced threshold 444 ft Runway heading 58
Runway 24R Runway length 9922 ft Runway width 148 ft
Runway elevation 64 ft Runway displaced threshold 444 ft Runway heading 238
Runway 06R Runway length 9931 ft Runway width 74 ft
Runway elevation 72 ft Runway displaced threshold 446 ft Runway heading 58
Runway 24L Runway length 9931 ft Runway width 74 ft
Runway elevation 65 ft Runway displaced threshold 446 ft Runway heading 238

 AIRPORT FREQUENCIES
Type APP Name RAPCON SOU Frequency 123.175 MHZ
Type GND Name GND Frequency 38.677 MHZ
Type TWR Name TWR Frequency 133.425 MHZ

 AIRPORT NEAR NAVIGATION AIDS
Type TACAN Name Volkel Frequency 108300 KHZ